createdAt,value
2022-08-20T06:33:39.456Z,22.02
2022-08-20T06:36:49.097Z,22.04
2022-08-20T06:40:02.560Z,22.00
2022-08-20T06:43:12.623Z,22.04
2022-08-20T06:46:23.346Z,22.08
2022-08-20T06:49:35.709Z,22.09
2022-08-20T06:52:52.090Z,22.24
2022-08-20T06:56:02.784Z,22.29
2022-08-20T06:59:12.264Z,22.47
2022-08-20T07:02:29.273Z,22.54
2022-08-20T07:05:43.987Z,22.70
2022-08-20T07:08:54.262Z,22.77
2022-08-20T07:12:04.075Z,22.90
2022-08-20T07:15:15.670Z,23.05
2022-08-20T07:18:28.050Z,23.26
2022-08-20T07:21:40.401Z,23.51
2022-08-20T07:24:49.918Z,23.52
2022-08-20T07:28:02.804Z,23.57
2022-08-20T07:31:23.632Z,23.39
2022-08-20T07:34:33.146Z,23.39
2022-08-20T07:37:48.282Z,23.49
2022-08-20T07:41:00.248Z,23.65
2022-08-20T07:44:09.710Z,23.73
2022-08-20T07:47:20.099Z,23.68
2022-08-20T07:50:29.654Z,23.53
2022-08-20T07:53:41.655Z,23.66
2022-08-20T07:56:51.175Z,23.80
2022-08-20T08:00:00.758Z,23.91
2022-08-20T08:03:10.829Z,23.90
2022-08-20T08:06:29.162Z,24.23
2022-08-20T08:09:40.983Z,24.34
2022-08-20T08:12:55.446Z,24.29
2022-08-20T08:16:06.865Z,24.28
2022-08-20T08:19:18.570Z,24.44
2022-08-20T08:22:32.439Z,24.79
2022-08-20T08:25:43.737Z,24.93
2022-08-20T08:28:53.229Z,24.98
2022-08-20T08:32:03.161Z,25.43
2022-08-20T08:35:12.845Z,25.76
2022-08-20T08:38:23.791Z,26.08
2022-08-20T08:41:36.731Z,26.20
2022-08-20T08:44:46.887Z,26.02
2022-08-20T08:47:57.798Z,25.75
2022-08-20T08:51:12.154Z,25.44
2022-08-20T08:54:25.106Z,25.40
2022-08-20T08:57:36.098Z,25.26
2022-08-20T09:00:55.923Z,25.64
2022-08-20T09:04:07.970Z,26.02
2022-08-20T09:07:18.105Z,26.34
2022-08-20T09:10:27.589Z,26.62
2022-08-20T09:13:38.928Z,27.24
2022-08-20T09:16:52.818Z,27.55
2022-08-20T09:20:03.007Z,27.82
2022-08-20T09:23:12.750Z,27.91
2022-08-20T09:26:22.563Z,28.35
2022-08-20T09:29:41.119Z,28.58
2022-08-20T09:32:51.088Z,29.08
2022-08-20T09:36:00.760Z,29.11
2022-08-20T09:39:12.376Z,29.49
2022-08-20T09:42:23.864Z,29.58
2022-08-20T09:45:34.767Z,29.46
2022-08-20T09:48:44.424Z,29.66
2022-08-20T09:51:54.016Z,29.68
2022-08-20T09:55:10.738Z,29.95
2022-08-20T09:58:28.288Z,30.47
2022-08-20T10:01:39.132Z,30.53
2022-08-20T10:04:48.686Z,30.74
2022-08-20T10:07:58.603Z,30.65
2022-08-20T10:11:08.649Z,30.44
2022-08-20T10:14:18.330Z,30.66
2022-08-20T10:17:29.331Z,30.26
2022-08-20T10:20:38.953Z,29.74
2022-08-20T10:23:48.722Z,29.19
2022-08-20T10:27:00.130Z,28.57
2022-08-20T10:30:11.199Z,27.94
2022-08-20T10:33:21.940Z,27.76
2022-08-20T10:36:31.631Z,28.30
2022-08-20T10:39:41.204Z,28.34
2022-08-20T10:42:51.577Z,28.46
2022-08-20T10:46:01.204Z,28.94
2022-08-20T10:49:12.131Z,29.83
2022-08-20T10:52:22.358Z,30.09
2022-08-20T10:55:31.831Z,30.65
2022-08-20T10:58:41.453Z,30.82
2022-08-20T11:01:51.008Z,30.81
2022-08-20T11:05:01.835Z,31.21
2022-08-20T11:08:11.302Z,31.48
2022-08-20T11:11:20.963Z,31.04
2022-08-20T11:14:31.325Z,30.63
2022-08-20T11:17:43.614Z,30.67
2022-08-20T11:20:54.845Z,30.71
2022-08-20T11:24:04.869Z,31.12
2022-08-20T11:27:20.599Z,31.36
2022-08-20T11:30:32.994Z,31.66
2022-08-20T11:33:42.607Z,31.80
2022-08-20T11:36:54.226Z,31.87
2022-08-20T11:40:05.098Z,32.15
2022-08-20T11:43:16.692Z,32.62
2022-08-20T11:46:28.675Z,32.88
2022-08-20T11:49:38.506Z,32.83
2022-08-20T11:52:49.445Z,32.50
2022-08-20T11:55:59.192Z,32.23
2022-08-20T11:59:10.042Z,32.64
2022-08-20T12:02:21.749Z,32.66
2022-08-20T12:05:31.679Z,32.53
2022-08-20T12:08:42.505Z,32.89
2022-08-20T12:11:51.967Z,33.11
2022-08-20T12:15:01.500Z,32.96
2022-08-20T12:18:11.524Z,32.42
2022-08-20T12:21:20.979Z,32.88
2022-08-20T12:24:31.833Z,33.01
2022-08-20T12:27:42.159Z,33.20
2022-08-20T12:30:51.635Z,33.48
2022-08-20T12:34:01.140Z,33.47
2022-08-20T12:37:15.915Z,33.70
2022-08-20T12:40:31.871Z,33.08
2022-08-20T12:43:44.772Z,33.52
2022-08-20T12:47:06.637Z,34.19
2022-08-20T12:50:19.362Z,34.61
2022-08-20T12:53:29.083Z,34.39
2022-08-20T12:56:41.689Z,34.45
2022-08-20T12:59:51.416Z,33.66
2022-08-20T13:03:03.481Z,33.15
2022-08-20T13:06:13.027Z,33.03
2022-08-20T13:09:22.546Z,32.94
2022-08-20T13:12:33.522Z,32.90
2022-08-20T13:15:43.211Z,32.76
2022-08-20T13:18:52.681Z,33.16
2022-08-20T13:22:02.393Z,33.57
2022-08-20T13:25:14.107Z,33.94
2022-08-20T13:28:24.903Z,33.87
2022-08-20T13:31:34.424Z,33.97
2022-08-20T13:34:45.160Z,33.63
2022-08-20T13:37:54.662Z,33.42
2022-08-20T13:41:04.173Z,33.35
2022-08-20T13:44:14.984Z,33.20
2022-08-20T13:47:27.690Z,33.33
2022-08-20T13:50:38.191Z,33.42
2022-08-20T13:53:47.805Z,33.36
2022-08-20T13:57:05.274Z,33.67
2022-08-20T14:00:31.194Z,34.04
2022-08-20T14:03:42.657Z,33.98
2022-08-20T14:06:52.312Z,34.26
2022-08-20T14:10:05.872Z,33.81
2022-08-20T14:13:15.914Z,33.53
2022-08-20T14:16:27.633Z,33.18
2022-08-20T14:19:38.380Z,32.90
2022-08-20T14:22:47.880Z,32.68
2022-08-20T14:25:57.346Z,32.32
2022-08-20T14:29:06.824Z,32.08
2022-08-20T14:32:18.935Z,31.73
2022-08-20T14:35:28.406Z,31.57
2022-08-20T14:38:41.329Z,31.47
2022-08-20T14:41:50.829Z,31.45
2022-08-20T14:45:02.235Z,31.04
2022-08-20T14:48:14.747Z,30.76
2022-08-20T14:51:24.234Z,30.77
2022-08-20T14:54:34.908Z,30.58
2022-08-20T14:57:45.243Z,30.44
2022-08-20T15:00:54.825Z,30.42
2022-08-20T15:04:05.765Z,30.41
2022-08-20T15:07:22.319Z,30.52
2022-08-20T15:10:34.129Z,30.68
2022-08-20T15:13:43.642Z,30.90
2022-08-20T15:16:54.127Z,31.37
2022-08-20T15:20:09.543Z,31.76
2022-08-20T15:23:30.110Z,32.04
2022-08-20T15:26:39.912Z,32.13
2022-08-20T15:29:49.911Z,32.27
2022-08-20T15:33:02.773Z,32.53
2022-08-20T15:36:13.880Z,32.53
2022-08-20T15:39:23.638Z,32.54
2022-08-20T15:42:33.204Z,32.59
2022-08-20T15:45:42.754Z,32.47
2022-08-20T15:48:52.714Z,32.55
2022-08-20T15:52:05.124Z,32.69
2022-08-20T15:55:17.713Z,32.69
2022-08-20T15:58:35.812Z,32.83
2022-08-20T16:01:54.474Z,32.90
2022-08-20T16:05:15.433Z,32.76
2022-08-20T16:08:40.562Z,32.56
2022-08-20T16:11:55.696Z,32.73
2022-08-20T16:15:17.247Z,32.89
2022-08-20T16:18:30.874Z,32.60
2022-08-20T16:21:43.958Z,32.27
2022-08-20T16:24:55.442Z,32.29
2022-08-20T16:28:11.189Z,32.25
2022-08-20T16:31:26.908Z,31.92
2022-08-20T16:34:41.395Z,31.64
2022-08-20T16:37:58.785Z,31.39
2022-08-20T16:41:14.397Z,31.19
2022-08-20T16:44:32.571Z,30.99
2022-08-20T16:47:42.230Z,30.91
2022-08-20T16:50:58.692Z,30.71
2022-08-20T16:54:09.688Z,30.70
2022-08-20T16:57:20.524Z,30.77
2022-08-20T17:00:35.379Z,30.77
2022-08-20T17:03:51.105Z,30.37
2022-08-20T17:07:02.818Z,30.18
2022-08-20T17:10:22.206Z,29.82
2022-08-20T17:13:36.946Z,29.67
2022-08-20T17:16:50.044Z,29.75
2022-08-20T17:20:01.917Z,29.67
2022-08-20T17:23:18.148Z,29.44
2022-08-20T17:26:32.201Z,29.14
2022-08-20T17:29:52.924Z,28.61
2022-08-20T17:33:19.803Z,28.17
2022-08-20T17:36:30.981Z,27.65
2022-08-20T17:39:47.788Z,27.36
2022-08-20T17:43:01.411Z,27.14
2022-08-20T17:46:17.278Z,26.81
2022-08-20T17:49:38.902Z,26.57
2022-08-20T17:52:51.582Z,26.36
2022-08-20T17:56:04.510Z,26.17
2022-08-20T17:59:33.602Z,26.07
2022-08-20T18:02:49.164Z,25.94
2022-08-20T18:06:03.740Z,25.81
2022-08-20T18:09:17.971Z,25.69
2022-08-20T18:12:34.893Z,25.60
2022-08-20T18:15:50.598Z,25.50
2022-08-20T18:19:12.911Z,25.34
2022-08-20T18:22:26.118Z,25.18
2022-08-20T18:25:38.240Z,25.08
2022-08-20T18:28:53.512Z,24.93
2022-08-20T18:32:06.086Z,24.85
2022-08-20T18:35:21.472Z,24.78
2022-08-20T18:38:34.385Z,24.65
2022-08-20T18:41:57.584Z,24.52
2022-08-20T18:45:09.801Z,24.42
2022-08-20T18:48:22.354Z,24.25
2022-08-20T18:51:40.531Z,24.14
2022-08-20T18:54:52.755Z,23.98
2022-08-20T18:58:05.070Z,23.84
2022-08-20T19:01:15.967Z,23.62
2022-08-20T19:04:31.735Z,23.46
2022-08-20T19:07:48.954Z,23.28
2022-08-20T19:11:12.820Z,23.16
2022-08-20T19:14:40.892Z,22.98
2022-08-20T19:18:01.741Z,22.79
2022-08-20T19:21:15.655Z,22.64
2022-08-20T19:24:29.378Z,22.54
2022-08-20T19:27:40.506Z,22.42
2022-08-20T19:30:50.419Z,22.22
2022-08-20T19:34:03.922Z,22.11
2022-08-20T19:37:39.698Z,21.96
2022-08-20T19:41:10.958Z,21.83
2022-08-20T19:44:31.220Z,21.67
2022-08-20T19:47:58.466Z,21.58
2022-08-20T19:51:14.702Z,21.40
2022-08-20T19:54:26.506Z,21.24
2022-08-20T19:57:38.223Z,21.14
2022-08-20T20:00:50.954Z,21.02
2022-08-20T20:04:03.515Z,20.94
2022-08-20T20:07:20.097Z,20.83
2022-08-20T20:10:37.660Z,20.69
2022-08-20T20:13:48.404Z,20.47
2022-08-20T20:16:59.189Z,20.28
2022-08-20T20:20:22.305Z,20.21
2022-08-20T20:23:45.653Z,20.06
2022-08-20T20:27:01.443Z,19.97
2022-08-20T20:30:14.941Z,20.00
2022-08-20T20:33:30.703Z,19.99
2022-08-20T20:36:43.537Z,19.93
2022-08-20T20:40:01.606Z,19.66
2022-08-20T20:43:13.439Z,19.53
2022-08-20T20:46:27.487Z,19.42
2022-08-20T20:49:49.665Z,19.30
2022-08-20T20:52:59.779Z,19.13
2022-08-20T20:56:09.684Z,18.98
2022-08-20T20:59:19.863Z,18.92
2022-08-20T21:02:31.220Z,18.86
2022-08-20T21:05:41.401Z,18.82
2022-08-20T21:08:50.985Z,18.68
2022-08-20T21:12:00.478Z,18.54
2022-08-20T21:15:11.275Z,18.39
2022-08-20T21:18:25.794Z,18.29
2022-08-20T21:21:37.238Z,18.13
2022-08-20T21:24:48.522Z,17.99
2022-08-20T21:27:59.344Z,17.93
2022-08-20T21:31:08.875Z,17.77
2022-08-20T21:34:20.295Z,17.67
2022-08-20T21:37:29.798Z,17.61
2022-08-20T21:40:39.296Z,17.58
2022-08-20T21:43:51.009Z,17.56
2022-08-20T21:47:01.878Z,17.49
2022-08-20T21:50:15.255Z,17.37
2022-08-20T21:53:28.345Z,17.30
